Fortunate — 3FLG6 — position and weather

sailwx.info

Track history (hours):
 
Tides and Currents Weather Stations Pressure Air Temp Water Temp Dewpoint Dewpoint Depression Visibility Wind Speed Wind Dir Waves Ship Positions

Fortunate

Last reported at 2016-Jun-25 02:33 UTC. Time now 2016-Jun-25 03:34 UTC.
Position N 52°60' E 004°21'.

Length 275 m; draft 10.2 m.

Type: Ship (hazmat cat A). MMSI: 356708000.

Date/timePositionNaut miles runAvg speedWind from/ knotsBaromVisibWave heightAir tempDewpointWater temp
2016-Jun-25 02:33N 52°60' E 004°21'1817.7
2016-Jun-25 01:31N 52°43' E 004°06'1717.3
2016-Jun-25 00:33N 52°29' E 003°53'1717.3
2016-Jun-24 23:33N 52°12' E 003°54'1211.5
2016-Jun-24 22:33N 52°01' E 003°60'4 4.0
2016-Jun-24 21:32N 51°58' E 004°04'0 0.0
2016-Jun-24 20:32N 51°58' E 004°04'0 0.0
2016-Jun-24 19:32N 51°58' E 004°04'0 0.0
2016-Jun-24 18:32N 51°58' E 004°04'0 0.0
2016-Jun-24 17:32N 51°58' E 004°04'0 0.0
2016-Jun-24 16:32N 51°58' E 004°04'0 0.0
2016-Jun-24 15:32N 51°58' E 004°04'0 0.0
2016-Jun-24 14:32N 51°58' E 004°04'0 0.0
2016-Jun-24 13:32N 51°58' E 004°04'0 0.0
2016-Jun-24 12:32N 51°58' E 004°04'0 0.0
2016-Jun-24 11:32N 51°58' E 004°04'0 0.0
2016-Jun-24 10:32N 51°58' E 004°04'0 0.0
2016-Jun-24 09:32N 51°58' E 004°04'0 0.0
2016-Jun-24 08:32N 51°58' E 004°04'0 0.0
2016-Jun-24 07:32N 51°58' E 004°04'0 0.0
2016-Jun-24 06:32N 51°58' E 004°04'0 0.0
2016-Jun-24 04:32N 51°58' E 004°04'0 0.0
2016-Jun-24 03:32N 51°58' E 004°04'0 0.0
2016-Jun-24 02:32N 51°58' E 004°04'0 0.0
2016-Jun-24 01:32N 51°58' E 004°04'1 1.4
2016-Jun-24 00:33N 51°59' E 004°04'10 9.7
2016-Jun-23 23:34N 52°00' E 003°48'1312.9
2016-Jun-23 22:33N 51°57' E 003°28'3316.6
2016-Jun-23 20:33N 51°54' E 002°34'1817.8
2016-Jun-23 19:33N 51°52' E 002°06'1616.4
2016-Jun-23 18:33N 51°50' E 001°39'1211.7
2016-Jun-23 17:33N 51°56' E 001°22'3 3.2
2016-Jun-23 16:32N 51°58' E 001°18'0 0.0
2016-Jun-23 15:32N 51°58' E 001°18'0 0.0
2016-Jun-23 14:32N 51°58' E 001°18'0 0.0
2016-Jun-23 13:32N 51°58' E 001°18'0 0.0
2016-Jun-23 12:32N 51°58' E 001°18'0 0.0
2016-Jun-23 11:32N 51°58' E 001°18'0 0.0
2016-Jun-23 10:32N 51°58' E 001°18'0 0.0
2016-Jun-23 09:32N 51°58' E 001°18'0 0.0
2016-Jun-23 08:32N 51°58' E 001°18'0 0.0
2016-Jun-23 07:32N 51°58' E 001°18'0 0.0
2016-Jun-23 05:32N 51°58' E 001°18'0 0.0
2016-Jun-23 04:32N 51°58' E 001°18'0 0.0
2016-Jun-23 03:32N 51°58' E 001°18'0 0.0
2016-Jun-23 02:32N 51°58' E 001°18'0 0.0
2016-Jun-23 01:32N 51°58' E 001°18'0 0.0
2016-Jun-23 00:32N 51°58' E 001°18'0 0.0
2016-Jun-22 23:32N 51°58' E 001°18'0 0.0
2016-Jun-22 22:32N 51°58' E 001°18'0 0.0
2016-Jun-22 21:32N 51°58' E 001°18'0 0.0
2016-Jun-22 20:32N 51°58' E 001°18'0 0.0
2016-Jun-22 19:32N 51°58' E 001°18'0 0.0
2016-Jun-22 18:32N 51°58' E 001°18'0 0.0
2016-Jun-22 17:32N 51°58' E 001°18'0 0.0
2016-Jun-22 16:32N 51°58' E 001°18'0 0.0
2016-Jun-22 15:32N 51°58' E 001°18'0 0.0
2016-Jun-22 14:32N 51°58' E 001°18'0 0.0
2016-Jun-22 13:32N 51°58' E 001°18'0 0.0
2016-Jun-22 12:32N 51°58' E 001°18'0 0.0
2016-Jun-22 11:32N 51°58' E 001°18'0 0.0
2016-Jun-22 10:32N 51°58' E 001°18'0 0.0
2016-Jun-22 09:32N 51°58' E 001°18'0 0.0
2016-Jun-22 08:32N 51°58' E 001°18'0 0.0
2016-Jun-22 07:32N 51°58' E 001°18'0 0.0
2016-Jun-22 06:32N 51°58' E 001°18'0 0.0
2016-Jun-22 05:32N 51°58' E 001°18'0 0.0
2016-Jun-22 04:32N 51°58' E 001°18'0 0.0
2016-Jun-22 03:32N 51°58' E 001°18'0 0.0
2016-Jun-22 02:32N 51°58' E 001°18'0 0.0
2016-Jun-22 01:32N 51°58' E 001°18'0 0.0
2016-Jun-22 00:32N 51°58' E 001°18'0 0.0
2016-Jun-21 23:32N 51°58' E 001°18'0 0.0
2016-Jun-21 22:32N 51°58' E 001°18'3 2.7
2016-Jun-21 21:33N 51°55' E 001°21'1010.5
2016-Jun-21 20:33N 51°51' E 001°36'3 3.0
2016-Jun-21 19:33N 51°53' E 001°40'1 0.9
2016-Jun-21 18:32N 51°54' E 001°39'0 0.0
2016-Jun-21 17:32N 51°54' E 001°39'0 0.0
2016-Jun-21 16:34N 51°54' E 001°39'8 7.9
2016-Jun-21 15:34N 51°48' E 001°48'1616.4
2016-Jun-21 14:33N 51°32' E 001°53'1313.3
2016-Jun-21 13:34N 51°19' E 001°57'2120.8
2016-Jun-21 12:34N 51°03' E 001°36'2220.6
2016-Jun-21 11:28N 50°43' E 001°20'3719.5
2016-Jun-21 09:33N 50°26' E 000°28'2120.9
2016-Jun-21 08:34N 50°21' W 000°04'2120.9
2016-Jun-21 07:34N 50°15' W 000°35'2120.5
2016-Jun-21 06:33N 50°09' W 001°06'5418.1
2016-Jun-21 03:33N 49°53' W 002°26'1716.6
2016-Jun-21 02:34N 49°48' W 002°51'1716.6
2016-Jun-21 01:34N 49°41' W 003°14'1717.0
2016-Jun-21 00:34N 49°33' W 003°38'1717.1
2016-Jun-20 23:33N 49°25' W 004°01'2517.0
2016-Jun-20 22:04N 49°12' W 004°34'1317.1
2016-Jun-20 21:20N 49°06' W 004°51'1317.2
2016-Jun-20 20:33N 48°59' W 005°08'1817.6
2016-Jun-20 19:34N 48°50' W 005°32'61117.8
2016-Jun-19 09:15N 39°08' W 009°51'1517.7
2016-Jun-19 08:26N 38°54' W 009°52'1517.5
2016-Jun-19 07:33N 38°39' W 009°51'1717.5
2016-Jun-19 06:34N 38°21' W 009°47'1817.3
2016-Jun-19 05:33N 38°05' W 009°39'1817.7
2016-Jun-19 04:33N 37°48' W 009°33'1817.8
2016-Jun-19 03:33N 37°30' W 009°30'8716.1
2016-Jun-18 22:09N 36°29' W 008°12'1118.2
2016-Jun-18 21:33N 36°26' W 007°59'3617.9
2016-Jun-18 19:34N 36°14' W 007°17'3617.5
2016-Jun-18 17:31N 36°02' W 006°36'4915.7
2016-Jun-18 14:24N 35°58' W 005°35'1315.2
2016-Jun-18 13:34N 36°01' W 005°20'18917.1
2016-Jun-18 02:33N 36°51' W 001°34'1918.5
2016-Jun-18 01:31N 37°04' W 001°16'1818.6
2016-Jun-18 00:32N 37°16' W 000°59'1918.9
2016-Jun-17 23:33N 37°28' W 000°41'1818.2
2016-Jun-17 22:33N 37°42' W 000°26'1918.6
2016-Jun-17 21:33N 37°58' W 000°14'6516.2
2016-Jun-17 17:33N 38°59' E 000°13'39 1.6
2016-Jun-16 17:25N 39°16' E 000°58'1517.6
2016-Jun-16 16:33N 39°14' E 001°17'1817.2
2016-Jun-16 15:32N 39°13' E 001°40'1717.3
2016-Jun-16 14:33N 39°09' E 002°02'1817.7
2016-Jun-16 13:33N 39°05' E 002°24'1818.1
2016-Jun-16 12:33N 39°00' E 002°46'1817.9
2016-Jun-16 11:33N 38°58' E 003°09'25917.2
2016-Jun-15 20:33N 38°38' E 008°40'1817.9
2016-Jun-15 19:33N 38°40' E 009°03'1918.5
2016-Jun-15 18:33N 38°49' E 009°24'3718.4
2016-Jun-15 16:33N 39°06' E 010°06'18718.0
2016-Jun-15 06:09N 40°29' E 013°44'1117.6
2016-Jun-15 05:33N 40°34' E 013°56'1716.7
2016-Jun-15 04:33N 40°43' E 014°14'7 7.4
2016-Jun-15 03:33N 40°50' E 014°17'  
Track history (hours):
 
Tides and Currents Weather Stations Pressure Air Temp Water Temp Dewpoint Dewpoint Depression Visibility Wind Speed Wind Dir Waves Ship Positions

Fortunate

Last reported at 2016-Jun-25 02:33 UTC. Time now 2016-Jun-25 03:34 UTC.
Position N 52°60' E 004°21'.

Length 275 m; draft 10.2 m.

Type: Ship (hazmat cat A). MMSI: 356708000.

Date/timePositionNaut miles runAvg speedWind from/ knotsBaromVisibWave heightAir tempDewpointWater temp
2016-Jun-25 02:33N 52°60' E 004°21'1817.7
2016-Jun-25 01:31N 52°43' E 004°06'1717.3
2016-Jun-25 00:33N 52°29' E 003°53'1717.3
2016-Jun-24 23:33N 52°12' E 003°54'1211.5
2016-Jun-24 22:33N 52°01' E 003°60'4 4.0
2016-Jun-24 21:32N 51°58' E 004°04'0 0.0
2016-Jun-24 20:32N 51°58' E 004°04'0 0.0
2016-Jun-24 19:32N 51°58' E 004°04'0 0.0
2016-Jun-24 18:32N 51°58' E 004°04'0 0.0
2016-Jun-24 17:32N 51°58' E 004°04'0 0.0
2016-Jun-24 16:32N 51°58' E 004°04'0 0.0
2016-Jun-24 15:32N 51°58' E 004°04'0 0.0
2016-Jun-24 14:32N 51°58' E 004°04'0 0.0
2016-Jun-24 13:32N 51°58' E 004°04'0 0.0
2016-Jun-24 12:32N 51°58' E 004°04'0 0.0
2016-Jun-24 11:32N 51°58' E 004°04'0 0.0
2016-Jun-24 10:32N 51°58' E 004°04'0 0.0
2016-Jun-24 09:32N 51°58' E 004°04'0 0.0
2016-Jun-24 08:32N 51°58' E 004°04'0 0.0
2016-Jun-24 07:32N 51°58' E 004°04'0 0.0
2016-Jun-24 06:32N 51°58' E 004°04'0 0.0
2016-Jun-24 04:32N 51°58' E 004°04'0 0.0
2016-Jun-24 03:32N 51°58' E 004°04'0 0.0
2016-Jun-24 02:32N 51°58' E 004°04'0 0.0
2016-Jun-24 01:32N 51°58' E 004°04'1 1.4
2016-Jun-24 00:33N 51°59' E 004°04'10 9.7
2016-Jun-23 23:34N 52°00' E 003°48'1312.9
2016-Jun-23 22:33N 51°57' E 003°28'3316.6
2016-Jun-23 20:33N 51°54' E 002°34'1817.8
2016-Jun-23 19:33N 51°52' E 002°06'1616.4
2016-Jun-23 18:33N 51°50' E 001°39'1211.7
2016-Jun-23 17:33N 51°56' E 001°22'3 3.2
2016-Jun-23 16:32N 51°58' E 001°18'0 0.0
2016-Jun-23 15:32N 51°58' E 001°18'0 0.0
2016-Jun-23 14:32N 51°58' E 001°18'0 0.0
2016-Jun-23 13:32N 51°58' E 001°18'0 0.0
2016-Jun-23 12:32N 51°58' E 001°18'0 0.0
2016-Jun-23 11:32N 51°58' E 001°18'0 0.0
2016-Jun-23 10:32N 51°58' E 001°18'0 0.0
2016-Jun-23 09:32N 51°58' E 001°18'0 0.0
2016-Jun-23 08:32N 51°58' E 001°18'0 0.0
2016-Jun-23 07:32N 51°58' E 001°18'0 0.0
2016-Jun-23 05:32N 51°58' E 001°18'0 0.0
2016-Jun-23 04:32N 51°58' E 001°18'0 0.0
2016-Jun-23 03:32N 51°58' E 001°18'0 0.0
2016-Jun-23 02:32N 51°58' E 001°18'0 0.0
2016-Jun-23 01:32N 51°58' E 001°18'0 0.0
2016-Jun-23 00:32N 51°58' E 001°18'0 0.0
2016-Jun-22 23:32N 51°58' E 001°18'0 0.0
2016-Jun-22 22:32N 51°58' E 001°18'0 0.0
2016-Jun-22 21:32N 51°58' E 001°18'0 0.0
2016-Jun-22 20:32N 51°58' E 001°18'0 0.0
2016-Jun-22 19:32N 51°58' E 001°18'0 0.0
2016-Jun-22 18:32N 51°58' E 001°18'0 0.0
2016-Jun-22 17:32N 51°58' E 001°18'0 0.0
2016-Jun-22 16:32N 51°58' E 001°18'0 0.0
2016-Jun-22 15:32N 51°58' E 001°18'0 0.0
2016-Jun-22 14:32N 51°58' E 001°18'0 0.0
2016-Jun-22 13:32N 51°58' E 001°18'0 0.0
2016-Jun-22 12:32N 51°58' E 001°18'0 0.0
2016-Jun-22 11:32N 51°58' E 001°18'0 0.0
2016-Jun-22 10:32N 51°58' E 001°18'0 0.0
2016-Jun-22 09:32N 51°58' E 001°18'0 0.0
2016-Jun-22 08:32N 51°58' E 001°18'0 0.0
2016-Jun-22 07:32N 51°58' E 001°18'0 0.0
2016-Jun-22 06:32N 51°58' E 001°18'0 0.0
2016-Jun-22 05:32N 51°58' E 001°18'0 0.0
2016-Jun-22 04:32N 51°58' E 001°18'0 0.0
2016-Jun-22 03:32N 51°58' E 001°18'0 0.0
2016-Jun-22 02:32N 51°58' E 001°18'0 0.0
2016-Jun-22 01:32N 51°58' E 001°18'0 0.0
2016-Jun-22 00:32N 51°58' E 001°18'0 0.0
2016-Jun-21 23:32N 51°58' E 001°18'0 0.0
2016-Jun-21 22:32N 51°58' E 001°18'3 2.7
2016-Jun-21 21:33N 51°55' E 001°21'1010.5
2016-Jun-21 20:33N 51°51' E 001°36'3 3.0
2016-Jun-21 19:33N 51°53' E 001°40'1 0.9
2016-Jun-21 18:32N 51°54' E 001°39'0 0.0
2016-Jun-21 17:32N 51°54' E 001°39'0 0.0
2016-Jun-21 16:34N 51°54' E 001°39'8 7.9
2016-Jun-21 15:34N 51°48' E 001°48'1616.4
2016-Jun-21 14:33N 51°32' E 001°53'1313.3
2016-Jun-21 13:34N 51°19' E 001°57'2120.8
2016-Jun-21 12:34N 51°03' E 001°36'2220.6
2016-Jun-21 11:28N 50°43' E 001°20'3719.5
2016-Jun-21 09:33N 50°26' E 000°28'2120.9
2016-Jun-21 08:34N 50°21' W 000°04'2120.9
2016-Jun-21 07:34N 50°15' W 000°35'2120.5
2016-Jun-21 06:33N 50°09' W 001°06'5418.1
2016-Jun-21 03:33N 49°53' W 002°26'1716.6
2016-Jun-21 02:34N 49°48' W 002°51'1716.6
2016-Jun-21 01:34N 49°41' W 003°14'1717.0
2016-Jun-21 00:34N 49°33' W 003°38'1717.1
2016-Jun-20 23:33N 49°25' W 004°01'2517.0
2016-Jun-20 22:04N 49°12' W 004°34'1317.1
2016-Jun-20 21:20N 49°06' W 004°51'1317.2
2016-Jun-20 20:33N 48°59' W 005°08'1817.6
2016-Jun-20 19:34N 48°50' W 005°32'61117.8
2016-Jun-19 09:15N 39°08' W 009°51'1517.7
2016-Jun-19 08:26N 38°54' W 009°52'1517.5
2016-Jun-19 07:33N 38°39' W 009°51'1717.5
2016-Jun-19 06:34N 38°21' W 009°47'1817.3
2016-Jun-19 05:33N 38°05' W 009°39'1817.7
2016-Jun-19 04:33N 37°48' W 009°33'1817.8
2016-Jun-19 03:33N 37°30' W 009°30'8716.1
2016-Jun-18 22:09N 36°29' W 008°12'1118.2
2016-Jun-18 21:33N 36°26' W 007°59'3617.9
2016-Jun-18 19:34N 36°14' W 007°17'3617.5
2016-Jun-18 17:31N 36°02' W 006°36'4915.7
2016-Jun-18 14:24N 35°58' W 005°35'1315.2
2016-Jun-18 13:34N 36°01' W 005°20'18917.1
2016-Jun-18 02:33N 36°51' W 001°34'1918.5
2016-Jun-18 01:31N 37°04' W 001°16'1818.6
2016-Jun-18 00:32N 37°16' W 000°59'1918.9
2016-Jun-17 23:33N 37°28' W 000°41'1818.2
2016-Jun-17 22:33N 37°42' W 000°26'1918.6
2016-Jun-17 21:33N 37°58' W 000°14'6516.2
2016-Jun-17 17:33N 38°59' E 000°13'39 1.6
2016-Jun-16 17:25N 39°16' E 000°58'1517.6
2016-Jun-16 16:33N 39°14' E 001°17'1817.2
2016-Jun-16 15:32N 39°13' E 001°40'1717.3
2016-Jun-16 14:33N 39°09' E 002°02'1817.7
2016-Jun-16 13:33N 39°05' E 002°24'1818.1
2016-Jun-16 12:33N 39°00' E 002°46'1817.9
2016-Jun-16 11:33N 38°58' E 003°09'25917.2
2016-Jun-15 20:33N 38°38' E 008°40'1817.9
2016-Jun-15 19:33N 38°40' E 009°03'1918.5
2016-Jun-15 18:33N 38°49' E 009°24'3718.4
2016-Jun-15 16:33N 39°06' E 010°06'18718.0
2016-Jun-15 06:09N 40°29' E 013°44'1117.6
2016-Jun-15 05:33N 40°34' E 013°56'1716.7
2016-Jun-15 04:33N 40°43' E 014°14'7 7.4
2016-Jun-15 03:33N 40°50' E 014°17'  

Dump ship's entire track history